sensor_id;sensor_type;location;lat;lon;timestamp;pressure;altitude;pressure_sealevel;temperature;humidity
47080;BME280;33067;49.296;14.470;2023-07-16T00:00:23;96331.12;;;28.78;31.94
47080;BME280;33067;49.296;14.470;2023-07-16T00:02:49;96329.17;;;28.83;32.25
47080;BME280;33067;49.296;14.470;2023-07-16T00:05:14;96333.45;;;28.58;32.52
47080;BME280;33067;49.296;14.470;2023-07-16T00:07:39;96332.77;;;28.53;32.52
47080;BME280;33067;49.296;14.470;2023-07-16T00:10:05;96335.25;;;28.51;32.59
47080;BME280;33067;49.296;14.470;2023-07-16T00:12:30;96335.37;;;28.57;32.39
47080;BME280;33067;49.296;14.470;2023-07-16T00:14:55;96337.99;;;28.42;32.65
47080;BME280;33067;49.296;14.470;2023-07-16T00:17:21;96339.69;;;28.20;32.75
47080;BME280;33067;49.296;14.470;2023-07-16T00:19:47;96339.04;;;28.38;32.71
47080;BME280;33067;49.296;14.470;2023-07-16T00:22:12;96337.66;;;28.40;32.73
47080;BME280;33067;49.296;14.470;2023-07-16T00:24:38;96334.78;;;28.33;32.83
47080;BME280;33067;49.296;14.470;2023-07-16T00:27:04;96333.18;;;28.36;32.86
47080;BME280;33067;49.296;14.470;2023-07-16T00:29:29;96330.93;;;28.38;32.86
47080;BME280;33067;49.296;14.470;2023-07-16T00:31:55;96332.04;;;28.28;32.91
47080;BME280;33067;49.296;14.470;2023-07-16T00:34:21;96337.90;;;28.07;32.83
47080;BME280;33067;49.296;14.470;2023-07-16T00:36:46;96337.73;;;28.30;32.85
47080;BME280;33067;49.296;14.470;2023-07-16T00:39:11;96335.23;;;28.12;33.01
47080;BME280;33067;49.296;14.470;2023-07-16T00:41:37;96331.99;;;28.01;33.11
47080;BME280;33067;49.296;14.470;2023-07-16T00:44:03;96326.87;;;27.91;33.40
47080;BME280;33067;49.296;14.470;2023-07-16T00:46:28;96324.49;;;28.01;34.03
47080;BME280;33067;49.296;14.470;2023-07-16T00:48:54;96323.47;;;27.62;34.23
47080;BME280;33067;49.296;14.470;2023-07-16T00:51:22;96320.47;;;27.96;33.99
47080;BME280;33067;49.296;14.470;2023-07-16T00:53:46;96316.31;;;27.79;33.74
47080;BME280;33067;49.296;14.470;2023-07-16T00:56:12;96318.65;;;28.08;33.72
47080;BME280;33067;49.296;14.470;2023-07-16T00:58:37;96322.35;;;27.95;33.71
47080;BME280;33067;49.296;14.470;2023-07-16T01:01:02;96324.18;;;28.10;33.83
47080;BME280;33067;49.296;14.470;2023-07-16T01:03:28;96328.24;;;28.36;33.93
47080;BME280;33067;49.296;14.470;2023-07-16T01:06:00;96329.78;;;27.86;33.81
47080;BME280;33067;49.296;14.470;2023-07-16T01:08:25;96332.38;;;28.14;33.93
47080;BME280;33067;49.296;14.470;2023-07-16T01:10:45;96336.76;;;28.23;34.16
47080;BME280;33067;49.296;14.470;2023-07-16T01:13:11;96337.51;;;28.29;33.86
47080;BME280;33067;49.296;14.470;2023-07-16T01:15:37;96335.56;;;27.51;33.85
47080;BME280;33067;49.296;14.470;2023-07-16T01:18:03;96337.39;;;27.50;34.00
47080;BME280;33067;49.296;14.470;2023-07-16T01:20:27;96347.28;;;28.09;33.91
47080;BME280;33067;49.296;14.470;2023-07-16T01:23:08;96357.88;;;27.64;33.99
47080;BME280;33067;49.296;14.470;2023-07-16T01:25:31;96368.74;;;27.64;33.85
47080;BME280;33067;49.296;14.470;2023-07-16T01:30:11;96431.87;;;27.22;34.29
47080;BME280;33067;49.296;14.470;2023-07-16T01:32:36;96457.30;;;27.09;34.89
47080;BME280;33067;49.296;14.470;2023-07-16T01:35:02;96419.34;;;26.66;35.92
47080;BME280;33067;49.296;14.470;2023-07-16T01:37:27;96406.70;;;26.58;36.10
47080;BME280;33067;49.296;14.470;2023-07-16T01:39:53;96461.53;;;26.93;35.64
47080;BME280;33067;49.296;14.470;2023-07-16T01:42:18;96494.79;;;26.77;36.42
47080;BME280;33067;49.296;14.470;2023-07-16T01:44:44;96468.19;;;26.84;36.27
47080;BME280;33067;49.296;14.470;2023-07-16T01:47:11;96443.18;;;26.40;37.10
47080;BME280;33067;49.296;14.470;2023-07-16T01:49:35;96475.87;;;26.72;36.89
47080;BME280;33067;49.296;14.470;2023-07-16T01:52:03;96472.77;;;26.46;36.63
47080;BME280;33067;49.296;14.470;2023-07-16T01:54:27;96478.90;;;27.04;36.16
47080;BME280;33067;49.296;14.470;2023-07-16T01:56:52;96495.93;;;26.89;36.39
47080;BME280;33067;49.296;14.470;2023-07-16T01:59:18;96522.21;;;26.69;36.38
47080;BME280;33067;49.296;14.470;2023-07-16T02:01:44;96517.24;;;26.58;36.47
47080;BME280;33067;49.296;14.470;2023-07-16T02:04:10;96510.93;;;26.53;36.58
47080;BME280;33067;49.296;14.470;2023-07-16T02:06:35;96526.85;;;27.07;36.22
47080;BME280;33067;49.296;14.470;2023-07-16T02:09:01;96525.56;;;27.15;36.13
47080;BME280;33067;49.296;14.470;2023-07-16T02:13:01;96514.58;;;27.28;36.19
47080;BME280;33067;49.296;14.470;2023-07-16T02:15:26;96547.70;;;27.23;36.21
47080;BME280;33067;49.296;14.470;2023-07-16T02:17:52;96542.51;;;27.09;36.08
47080;BME280;33067;49.296;14.470;2023-07-16T02:20:18;96545.04;;;27.53;35.94
47080;BME280;33067;49.296;14.470;2023-07-16T02:22:43;96571.13;;;27.26;35.87
47080;BME280;33067;49.296;14.470;2023-07-16T02:25:09;96578.57;;;26.80;36.38
47080;BME280;33067;49.296;14.470;2023-07-16T02:27:35;96581.01;;;26.92;36.17
47080;BME280;33067;49.296;14.470;2023-07-16T02:30:00;96590.01;;;26.80;36.52
47080;BME280;33067;49.296;14.470;2023-07-16T02:32:26;96598.53;;;26.98;36.10
47080;BME280;33067;49.296;14.470;2023-07-16T02:34:52;96611.61;;;26.98;36.06
47080;BME280;33067;49.296;14.470;2023-07-16T02:37:17;96608.57;;;26.86;36.20
47080;BME280;33067;49.296;14.470;2023-07-16T02:39:45;96615.81;;;26.92;36.18
47080;BME280;33067;49.296;14.470;2023-07-16T02:42:09;96614.11;;;26.94;36.12
47080;BME280;33067;49.296;14.470;2023-07-16T02:44:34;96621.08;;;26.87;36.02
47080;BME280;33067;49.296;14.470;2023-07-16T02:47:00;96621.72;;;27.06;35.79
47080;BME280;33067;49.296;14.470;2023-07-16T02:49:25;96632.91;;;26.65;36.24
47080;BME280;33067;49.296;14.470;2023-07-16T02:51:50;96641.84;;;27.03;35.70
47080;BME280;33067;49.296;14.470;2023-07-16T02:54:16;96645.76;;;26.79;35.68
47080;BME280;33067;49.296;14.470;2023-07-16T02:56:42;96654.40;;;26.91;35.99
47080;BME280;33067;49.296;14.470;2023-07-16T02:59:07;96663.16;;;26.82;36.11
47080;BME280;33067;49.296;14.470;2023-07-16T03:01:33;96661.00;;;26.85;36.07
47080;BME280;33067;49.296;14.470;2023-07-16T03:03:58;96662.04;;;26.77;35.87
47080;BME280;33067;49.296;14.470;2023-07-16T03:06:24;96658.33;;;26.84;35.63
47080;BME280;33067;49.296;14.470;2023-07-16T03:08:49;96655.60;;;26.68;35.52
47080;BME280;33067;49.296;14.470;2023-07-16T03:11:15;96662.43;;;26.77;35.31
47080;BME280;33067;49.296;14.470;2023-07-16T03:13:40;96676.37;;;26.91;35.00
47080;BME280;33067;49.296;14.470;2023-07-16T03:16:06;96677.10;;;26.64;34.77
47080;BME280;33067;49.296;14.470;2023-07-16T03:18:32;96678.96;;;26.63;34.71
47080;BME280;33067;49.296;14.470;2023-07-16T03:20:57;96679.02;;;26.59;34.73
47080;BME280;33067;49.296;14.470;2023-07-16T03:23:23;96690.34;;;26.55;34.35
47080;BME280;33067;49.296;14.470;2023-07-16T03:25:48;96702.07;;;26.41;34.49
47080;BME280;33067;49.296;14.470;2023-07-16T03:28:14;96706.59;;;26.00;34.80
47080;BME280;33067;49.296;14.470;2023-07-16T03:30:39;96711.88;;;25.72;35.14
47080;BME280;33067;49.296;14.470;2023-07-16T03:33:05;96714.31;;;25.42;35.42
47080;BME280;33067;49.296;14.470;2023-07-16T03:35:31;96723.72;;;26.14;34.87
47080;BME280;33067;49.296;14.470;2023-07-16T03:37:57;96732.42;;;26.40;34.63
47080;BME280;33067;49.296;14.470;2023-07-16T03:40:25;96736.39;;;26.30;34.25
47080;BME280;33067;49.296;14.470;2023-07-16T03:42:48;96744.82;;;26.52;34.11
47080;BME280;33067;49.296;14.470;2023-07-16T03:45:14;96753.71;;;26.94;34.03
47080;BME280;33067;49.296;14.470;2023-07-16T03:47:40;96774.22;;;26.40;34.03
47080;BME280;33067;49.296;14.470;2023-07-16T03:50:06;96792.80;;;27.31;33.60
47080;BME280;33067;49.296;14.470;2023-07-16T03:52:31;96814.30;;;26.98;33.64
47080;BME280;33067;49.296;14.470;2023-07-16T03:54:57;96830.09;;;26.92;33.66
47080;BME280;33067;49.296;14.470;2023-07-16T03:57:22;96836.54;;;26.94;33.59
47080;BME280;33067;49.296;14.470;2023-07-16T03:59:48;96843.99;;;27.22;33.94
47080;BME280;33067;49.296;14.470;2023-07-16T04:02:14;96853.38;;;26.50;35.03
47080;BME280;33067;49.296;14.470;2023-07-16T04:04:39;96860.49;;;26.56;35.20
47080;BME280;33067;49.296;14.470;2023-07-16T04:07:05;96870.59;;;26.38;35.90
47080;BME280;33067;49.296;14.470;2023-07-16T04:09:31;96876.12;;;26.46;36.67
47080;BME280;33067;49.296;14.470;2023-07-16T04:11:56;96888.18;;;26.32;36.95
47080;BME280;33067;49.296;14.470;2023-07-16T04:14:22;96901.95;;;26.08;37.73
47080;BME280;33067;49.296;14.470;2023-07-16T04:16:48;96911.76;;;26.46;37.72
47080;BME280;33067;49.296;14.470;2023-07-16T04:19:13;96914.15;;;25.70;38.91
47080;BME280;33067;49.296;14.470;2023-07-16T04:21:39;96915.50;;;26.06;38.96
47080;BME280;33067;49.296;14.470;2023-07-16T04:24:05;96926.01;;;26.16;39.14
47080;BME280;33067;49.296;14.470;2023-07-16T04:26:30;96934.56;;;26.19;39.52
47080;BME280;33067;49.296;14.470;2023-07-16T04:28:56;96935.98;;;25.80;39.89
47080;BME280;33067;49.296;14.470;2023-07-16T04:31:23;96922.39;;;26.06;39.94
47080;BME280;33067;49.296;14.470;2023-07-16T04:33:48;96922.52;;;25.54;40.35
47080;BME280;33067;49.296;14.470;2023-07-16T04:36:15;96913.14;;;25.39;41.00
47080;BME280;33067;49.296;14.470;2023-07-16T04:38:39;96908.94;;;24.74;42.78
47080;BME280;33067;49.296;14.470;2023-07-16T04:41:05;96918.07;;;24.87;42.73
47080;BME280;33067;49.296;14.470;2023-07-16T04:43:31;96932.07;;;25.07;42.85
47080;BME280;33067;49.296;14.470;2023-07-16T04:45:57;96917.83;;;24.73;44.02
47080;BME280;33067;49.296;14.470;2023-07-16T04:48:22;96907.00;;;24.79;45.19
47080;BME280;33067;49.296;14.470;2023-07-16T04:50:48;96903.92;;;23.92;46.78
47080;BME280;33067;49.296;14.470;2023-07-16T04:53:14;96912.95;;;24.25;47.22
47080;BME280;33067;49.296;14.470;2023-07-16T04:55:40;96933.53;;;24.42;46.66
47080;BME280;33067;49.296;14.470;2023-07-16T04:58:06;96945.82;;;24.61;46.04
47080;BME280;33067;49.296;14.470;2023-07-16T05:00:32;96945.56;;;24.49;46.87
47080;BME280;33067;49.296;14.470;2023-07-16T05:02:57;96948.61;;;24.07;46.61
47080;BME280;33067;49.296;14.470;2023-07-16T05:05:23;96952.09;;;24.83;46.14
47080;BME280;33067;49.296;14.470;2023-07-16T05:07:49;96937.89;;;24.90;45.61
47080;BME280;33067;49.296;14.470;2023-07-16T05:10:15;96928.47;;;24.98;44.66
47080;BME280;33067;49.296;14.470;2023-07-16T05:12:40;96920.52;;;25.09;45.07
47080;BME280;33067;49.296;14.470;2023-07-16T05:15:07;96917.62;;;24.83;45.22
47080;BME280;33067;49.296;14.470;2023-07-16T05:17:32;96910.04;;;24.18;46.52
47080;BME280;33067;49.296;14.470;2023-07-16T05:19:57;96909.78;;;24.10;46.34
47080;BME280;33067;49.296;14.470;2023-07-16T05:22:23;96910.73;;;24.14;46.77
47080;BME280;33067;49.296;14.470;2023-07-16T05:24:49;96924.36;;;23.95;47.04
47080;BME280;33067;49.296;14.470;2023-07-16T05:27:15;96934.13;;;24.32;47.18
47080;BME280;33067;49.296;14.470;2023-07-16T05:29:41;96930.79;;;24.91;46.66
47080;BME280;33067;49.296;14.470;2023-07-16T05:32:07;96939.65;;;24.91;46.32
47080;BME280;33067;49.296;14.470;2023-07-16T05:34:32;96962.04;;;25.16;45.58
47080;BME280;33067;49.296;14.470;2023-07-16T05:36:58;96975.50;;;24.71;46.55
47080;BME280;33067;49.296;14.470;2023-07-16T05:39:24;96986.15;;;24.63;46.00
47080;BME280;33067;49.296;14.470;2023-07-16T05:41:50;96986.91;;;25.41;45.31
47080;BME280;33067;49.296;14.470;2023-07-16T05:44:15;96985.80;;;25.40;45.24
47080;BME280;33067;49.296;14.470;2023-07-16T05:46:41;96982.05;;;24.85;46.25
47080;BME280;33067;49.296;14.470;2023-07-16T05:49:07;96971.14;;;25.01;46.05
47080;BME280;33067;49.296;14.470;2023-07-16T05:51:33;96967.49;;;24.89;45.85
47080;BME280;33067;49.296;14.470;2023-07-16T05:53:58;96968.75;;;25.14;45.82
47080;BME280;33067;49.296;14.470;2023-07-16T05:56:24;96970.69;;;25.34;45.59
47080;BME280;33067;49.296;14.470;2023-07-16T05:58:50;96984.70;;;24.81;46.15
47080;BME280;33067;49.296;14.470;2023-07-16T06:01:16;96989.32;;;24.87;46.23
47080;BME280;33067;49.296;14.470;2023-07-16T06:03:42;96980.35;;;25.04;46.19
47080;BME280;33067;49.296;14.470;2023-07-16T06:06:09;96982.70;;;25.05;46.02
47080;BME280;33067;49.296;14.470;2023-07-16T06:08:33;96994.96;;;24.93;46.15
47080;BME280;33067;49.296;14.470;2023-07-16T06:10:59;96989.00;;;25.13;45.84
47080;BME280;33067;49.296;14.470;2023-07-16T06:13:25;96980.19;;;25.09;45.84
47080;BME280;33067;49.296;14.470;2023-07-16T06:15:50;96971.56;;;25.16;45.93
47080;BME280;33067;49.296;14.470;2023-07-16T06:18:16;96966.70;;;25.46;45.67
47080;BME280;33067;49.296;14.470;2023-07-16T06:20:44;96967.96;;;25.31;45.44
47080;BME280;33067;49.296;14.470;2023-07-16T06:23:08;96964.53;;;25.59;45.50
47080;BME280;33067;49.296;14.470;2023-07-16T06:25:34;96957.20;;;25.30;46.39
47080;BME280;33067;49.296;14.470;2023-07-16T06:27:59;96963.13;;;25.34;46.32
47080;BME280;33067;49.296;14.470;2023-07-16T06:30:25;96973.52;;;25.30;45.98
47080;BME280;33067;49.296;14.470;2023-07-16T06:32:51;96980.74;;;25.47;45.81
47080;BME280;33067;49.296;14.470;2023-07-16T06:35:17;96984.07;;;25.53;46.27
47080;BME280;33067;49.296;14.470;2023-07-16T06:37:42;96979.18;;;25.37;46.45
47080;BME280;33067;49.296;14.470;2023-07-16T06:40:08;96976.67;;;25.21;46.32
47080;BME280;33067;49.296;14.470;2023-07-16T06:42:34;96974.40;;;25.65;46.05
47080;BME280;33067;49.296;14.470;2023-07-16T06:45:00;96978.76;;;25.34;46.04
47080;BME280;33067;49.296;14.470;2023-07-16T06:47:25;96984.34;;;25.43;45.79
47080;BME280;33067;49.296;14.470;2023-07-16T06:49:51;96988.61;;;25.31;45.84
47080;BME280;33067;49.296;14.470;2023-07-16T06:52:19;96990.60;;;25.48;45.74
47080;BME280;33067;49.296;14.470;2023-07-16T06:54:43;96995.96;;;25.56;45.68
47080;BME280;33067;49.296;14.470;2023-07-16T06:57:08;97003.85;;;25.68;45.66
47080;BME280;33067;49.296;14.470;2023-07-16T06:59:34;96999.75;;;25.80;45.48
47080;BME280;33067;49.296;14.470;2023-07-16T07:02:00;96993.69;;;26.04;44.70
47080;BME280;33067;49.296;14.470;2023-07-16T07:04:26;96998.34;;;25.98;45.42
47080;BME280;33067;49.296;14.470;2023-07-16T07:06:52;96999.69;;;26.04;45.46
47080;BME280;33067;49.296;14.470;2023-07-16T07:09:17;97003.10;;;26.22;44.85
47080;BME280;33067;49.296;14.470;2023-07-16T07:11:43;97004.43;;;26.18;44.92
47080;BME280;33067;49.296;14.470;2023-07-16T07:14:09;97010.03;;;26.21;44.91
47080;BME280;33067;49.296;14.470;2023-07-16T07:16:35;97020.44;;;26.17;44.83
47080;BME280;33067;49.296;14.470;2023-07-16T07:19:00;97026.56;;;26.30;44.54
47080;BME280;33067;49.296;14.470;2023-07-16T07:21:26;97031.44;;;25.95;44.72
47080;BME280;33067;49.296;14.470;2023-07-16T07:23:52;97034.74;;;26.10;44.86
47080;BME280;33067;49.296;14.470;2023-07-16T07:26:18;97036.36;;;26.11;44.52
47080;BME280;33067;49.296;14.470;2023-07-16T07:28:44;97042.32;;;26.06;44.82
47080;BME280;33067;49.296;14.470;2023-07-16T07:31:09;97042.18;;;26.25;44.89
47080;BME280;33067;49.296;14.470;2023-07-16T07:33:35;97041.19;;;26.09;44.71
47080;BME280;33067;49.296;14.470;2023-07-16T07:36:00;97038.07;;;26.31;44.42
47080;BME280;33067;49.296;14.470;2023-07-16T07:38:26;97036.27;;;26.30;44.12
47080;BME280;33067;49.296;14.470;2023-07-16T07:40:52;97031.93;;;26.45;44.10
47080;BME280;33067;49.296;14.470;2023-07-16T07:43:18;97033.95;;;26.26;44.76
47080;BME280;33067;49.296;14.470;2023-07-16T07:45:44;97033.58;;;26.46;44.62
47080;BME280;33067;49.296;14.470;2023-07-16T07:48:09;97037.90;;;26.44;44.45
47080;BME280;33067;49.296;14.470;2023-07-16T07:50:34;97043.50;;;26.94;43.72
47080;BME280;33067;49.296;14.470;2023-07-16T07:53:00;97043.36;;;26.89;43.75
47080;BME280;33067;49.296;14.470;2023-07-16T07:55:26;97037.09;;;27.04;43.51
47080;BME280;33067;49.296;14.470;2023-07-16T07:57:52;97036.08;;;27.13;42.52
47080;BME280;33067;49.296;14.470;2023-07-16T08:00:18;97042.04;;;27.12;42.18
47080;BME280;33067;49.296;14.470;2023-07-16T08:02:43;97040.56;;;26.84;42.00
47080;BME280;33067;49.296;14.470;2023-07-16T08:05:09;97040.35;;;27.77;41.52
47080;BME280;33067;49.296;14.470;2023-07-16T08:07:35;97037.10;;;27.07;41.91
47080;BME280;33067;49.296;14.470;2023-07-16T08:10:01;97034.41;;;27.08;41.66
47080;BME280;33067;49.296;14.470;2023-07-16T08:12:26;97027.66;;;27.06;41.95
47080;BME280;33067;49.296;14.470;2023-07-16T08:14:52;97025.03;;;26.98;42.18
47080;BME280;33067;49.296;14.470;2023-07-16T08:17:18;97029.74;;;27.06;41.98
47080;BME280;33067;49.296;14.470;2023-07-16T08:19:43;97031.14;;;26.87;41.78
47080;BME280;33067;49.296;14.470;2023-07-16T08:22:09;97025.11;;;27.15;41.47
47080;BME280;33067;49.296;14.470;2023-07-16T08:24:35;97025.66;;;26.94;41.25
47080;BME280;33067;49.296;14.470;2023-07-16T08:27:01;97031.03;;;26.75;41.66
47080;BME280;33067;49.296;14.470;2023-07-16T08:29:26;97031.27;;;26.84;41.92
47080;BME280;33067;49.296;14.470;2023-07-16T08:31:52;97037.42;;;26.94;42.00
47080;BME280;33067;49.296;14.470;2023-07-16T08:34:18;97037.94;;;27.27;41.85
47080;BME280;33067;49.296;14.470;2023-07-16T08:36:44;97042.17;;;27.19;41.60
47080;BME280;33067;49.296;14.470;2023-07-16T08:39:09;97050.25;;;27.43;41.16
47080;BME280;33067;49.296;14.470;2023-07-16T08:41:35;97054.76;;;27.58;40.55
47080;BME280;33067;49.296;14.470;2023-07-16T08:44:01;97061.45;;;27.66;40.46
47080;BME280;33067;49.296;14.470;2023-07-16T08:46:27;97068.85;;;27.75;39.90
47080;BME280;33067;49.296;14.470;2023-07-16T08:48:53;97076.05;;;27.50;40.48
47080;BME280;33067;49.296;14.470;2023-07-16T08:51:20;97076.88;;;27.56;40.66
47080;BME280;33067;49.296;14.470;2023-07-16T08:53:44;97077.93;;;27.60;40.97
47080;BME280;33067;49.296;14.470;2023-07-16T08:56:10;97077.13;;;27.62;40.52
47080;BME280;33067;49.296;14.470;2023-07-16T08:58:35;97072.37;;;27.33;41.12
47080;BME280;33067;49.296;14.470;2023-07-16T09:01:01;97072.08;;;27.43;40.95
47080;BME280;33067;49.296;14.470;2023-07-16T09:03:26;97072.24;;;27.23;40.86
47080;BME280;33067;49.296;14.470;2023-07-16T09:05:54;97073.08;;;27.78;40.83
47080;BME280;33067;49.296;14.470;2023-07-16T09:08:18;97073.48;;;27.83;40.01
47080;BME280;33067;49.296;14.470;2023-07-16T09:10:44;97078.08;;;27.97;40.65
47080;BME280;33067;49.296;14.470;2023-07-16T09:13:10;97082.56;;;28.33;39.21
47080;BME280;33067;49.296;14.470;2023-07-16T09:15:35;97077.91;;;27.92;39.07
47080;BME280;33067;49.296;14.470;2023-07-16T09:18:01;97077.22;;;27.97;39.00
47080;BME280;33067;49.296;14.470;2023-07-16T09:20:27;97081.93;;;28.35;38.38
47080;BME280;33067;49.296;14.470;2023-07-16T09:22:54;97081.11;;;28.21;38.59
47080;BME280;33067;49.296;14.470;2023-07-16T09:25:17;97076.29;;;28.10;38.92
47080;BME280;33067;49.296;14.470;2023-07-16T09:27:43;97072.73;;;28.23;38.06
47080;BME280;33067;49.296;14.470;2023-07-16T09:30:15;97069.22;;;28.34;38.31
47080;BME280;33067;49.296;14.470;2023-07-16T09:32:35;97064.93;;;27.94;38.33
47080;BME280;33067;49.296;14.470;2023-07-16T09:35:00;97064.22;;;27.97;38.35
47080;BME280;33067;49.296;14.470;2023-07-16T09:37:27;97059.30;;;28.41;37.98
47080;BME280;33067;49.296;14.470;2023-07-16T09:39:52;97059.39;;;28.41;37.69
47080;BME280;33067;49.296;14.470;2023-07-16T09:42:19;97064.55;;;28.67;37.25
47080;BME280;33067;49.296;14.470;2023-07-16T09:44:44;97061.16;;;28.67;36.74
47080;BME280;33067;49.296;14.470;2023-07-16T09:47:09;97068.35;;;28.95;36.63
47080;BME280;33067;49.296;14.470;2023-07-16T09:49:34;97064.60;;;28.88;36.47
47080;BME280;33067;49.296;14.470;2023-07-16T09:52:02;97061.28;;;29.23;36.38
47080;BME280;33067;49.296;14.470;2023-07-16T09:54:26;97065.54;;;29.07;36.52
47080;BME280;33067;49.296;14.470;2023-07-16T09:56:54;97066.65;;;28.53;36.51
47080;BME280;33067;49.296;14.470;2023-07-16T09:59:21;97071.71;;;29.32;36.36
47080;BME280;33067;49.296;14.470;2023-07-16T10:01:43;97074.19;;;29.39;36.15
47080;BME280;33067;49.296;14.470;2023-07-16T10:04:13;97064.54;;;29.32;35.65
47080;BME280;33067;49.296;14.470;2023-07-16T10:06:34;97078.79;;;29.47;35.12
47080;BME280;33067;49.296;14.470;2023-07-16T10:09:00;97082.10;;;29.28;35.38
47080;BME280;33067;49.296;14.470;2023-07-16T10:11:26;97083.98;;;29.44;35.15
47080;BME280;33067;49.296;14.470;2023-07-16T10:13:51;97083.95;;;29.21;35.84
47080;BME280;33067;49.296;14.470;2023-07-16T10:16:20;97081.79;;;29.31;35.69
47080;BME280;33067;49.296;14.470;2023-07-16T10:18:50;97080.04;;;29.24;35.40
47080;BME280;33067;49.296;14.470;2023-07-16T10:21:09;97077.50;;;29.06;35.56
47080;BME280;33067;49.296;14.470;2023-07-16T10:23:38;97074.66;;;28.65;35.27
47080;BME280;33067;49.296;14.470;2023-07-16T10:26:00;97070.47;;;29.08;34.93
47080;BME280;33067;49.296;14.470;2023-07-16T10:28:24;97073.30;;;29.47;34.76
47080;BME280;33067;49.296;14.470;2023-07-16T10:30:50;97069.11;;;28.98;35.35
47080;BME280;33067;49.296;14.470;2023-07-16T10:33:16;97073.83;;;29.21;35.20
47080;BME280;33067;49.296;14.470;2023-07-16T10:35:41;97077.22;;;29.48;34.63
47080;BME280;33067;49.296;14.470;2023-07-16T10:38:07;97075.96;;;29.24;35.04
47080;BME280;33067;49.296;14.470;2023-07-16T10:40:33;97073.77;;;29.86;34.64
47080;BME280;33067;49.296;14.470;2023-07-16T10:42:59;97070.20;;;29.45;34.82
47080;BME280;33067;49.296;14.470;2023-07-16T10:45:24;97073.25;;;29.81;34.74
47080;BME280;33067;49.296;14.470;2023-07-16T10:47:52;97072.17;;;29.58;35.13
47080;BME280;33067;49.296;14.470;2023-07-16T10:50:15;97063.25;;;29.51;35.20
47080;BME280;33067;49.296;14.470;2023-07-16T10:52:41;97056.99;;;30.08;34.48
47080;BME280;33067;49.296;14.470;2023-07-16T10:55:07;97054.77;;;30.04;33.92
47080;BME280;33067;49.296;14.470;2023-07-16T10:57:32;97065.79;;;29.54;34.79
47080;BME280;33067;49.296;14.470;2023-07-16T10:59:58;97063.42;;;29.80;34.78
47080;BME280;33067;49.296;14.470;2023-07-16T11:02:24;97057.60;;;30.02;34.60
47080;BME280;33067;49.296;14.470;2023-07-16T11:04:50;97058.08;;;29.53;34.03
47080;BME280;33067;49.296;14.470;2023-07-16T11:09:41;97062.47;;;28.32;34.59
47080;BME280;33067;49.296;14.470;2023-07-16T11:12:06;97061.59;;;28.25;35.22
47080;BME280;33067;49.296;14.470;2023-07-16T11:14:32;97052.11;;;29.00;34.61
47080;BME280;33067;49.296;14.470;2023-07-16T11:17:04;97053.13;;;29.34;33.76
47080;BME280;33067;49.296;14.470;2023-07-16T11:19:23;97050.40;;;29.09;33.74
47080;BME280;33067;49.296;14.470;2023-07-16T11:21:49;97053.04;;;28.33;34.70
47080;BME280;33067;49.296;14.470;2023-07-16T11:24:15;97048.15;;;29.27;34.13
47080;BME280;33067;49.296;14.470;2023-07-16T11:29:13;97048.61;;;30.07;33.00
47080;BME280;33067;49.296;14.470;2023-07-16T11:31:38;97048.34;;;30.30;32.61
47080;BME280;33067;49.296;14.470;2023-07-16T11:34:00;97046.08;;;30.32;31.86
47080;BME280;33067;49.296;14.470;2023-07-16T11:36:22;97045.06;;;29.37;32.81
47080;BME280;33067;49.296;14.470;2023-07-16T11:38:49;97034.05;;;30.10;32.27
47080;BME280;33067;49.296;14.470;2023-07-16T11:41:14;97025.75;;;29.17;33.09
47080;BME280;33067;49.296;14.470;2023-07-16T11:43:40;97020.52;;;29.89;32.58
47080;BME280;33067;49.296;14.470;2023-07-16T11:46:15;97016.80;;;30.38;32.42
47080;BME280;33067;49.296;14.470;2023-07-16T11:48:30;97012.19;;;30.33;31.46
47080;BME280;33067;49.296;14.470;2023-07-16T11:50:57;97012.29;;;30.77;31.09
47080;BME280;33067;49.296;14.470;2023-07-16T11:53:22;97011.97;;;30.41;31.59
47080;BME280;33067;49.296;14.470;2023-07-16T11:55:47;97007.11;;;30.27;31.52
47080;BME280;33067;49.296;14.470;2023-07-16T11:58:13;97012.82;;;28.74;32.74
47080;BME280;33067;49.296;14.470;2023-07-16T12:00:39;97005.02;;;30.09;31.54
47080;BME280;33067;49.296;14.470;2023-07-16T12:03:04;97009.18;;;30.40;31.61
47080;BME280;33067;49.296;14.470;2023-07-16T12:05:30;97007.27;;;29.79;31.65
47080;BME280;33067;49.296;14.470;2023-07-16T12:07:56;97008.93;;;30.29;30.91
47080;BME280;33067;49.296;14.470;2023-07-16T12:10:21;97005.21;;;29.90;31.76
47080;BME280;33067;49.296;14.470;2023-07-16T12:12:47;97005.07;;;29.21;32.08
47080;BME280;33067;49.296;14.470;2023-07-16T12:15:13;97000.86;;;30.06;31.16
47080;BME280;33067;49.296;14.470;2023-07-16T12:17:38;96996.43;;;30.51;31.10
47080;BME280;33067;49.296;14.470;2023-07-16T12:20:05;96997.72;;;30.35;30.14
47080;BME280;33067;49.296;14.470;2023-07-16T12:22:30;96997.44;;;30.86;30.31
47080;BME280;33067;49.296;14.470;2023-07-16T12:24:55;96999.82;;;31.05;27.25
47080;BME280;33067;49.296;14.470;2023-07-16T12:27:21;96997.93;;;30.71;27.96
47080;BME280;33067;49.296;14.470;2023-07-16T12:29:46;97002.87;;;30.75;27.91
47080;BME280;33067;49.296;14.470;2023-07-16T12:32:13;97000.94;;;31.22;27.39
47080;BME280;33067;49.296;14.470;2023-07-16T12:34:38;97003.80;;;31.19;27.78
47080;BME280;33067;49.296;14.470;2023-07-16T12:37:04;97003.92;;;31.51;27.85
47080;BME280;33067;49.296;14.470;2023-07-16T12:39:29;97002.62;;;31.83;27.29
47080;BME280;33067;49.296;14.470;2023-07-16T12:41:54;97000.05;;;31.57;27.79
47080;BME280;33067;49.296;14.470;2023-07-16T12:44:20;96997.47;;;30.85;28.12
47080;BME280;33067;49.296;14.470;2023-07-16T12:46:46;96999.88;;;29.76;29.75
47080;BME280;33067;49.296;14.470;2023-07-16T12:49:12;97000.03;;;29.29;30.45